sensor_id;sensor_type;location;lat;lon;timestamp;pressure;altitude;pressure_sealevel;temperature;humidity
50292;BME280;36190;54.980;73.388;2022-12-07T00:00:54;102683.13;;;-15.10;69.34
50292;BME280;36190;54.980;73.388;2022-12-07T00:03:21;102688.81;;;-15.19;69.32
50292;BME280;36190;54.980;73.388;2022-12-07T00:05:48;102689.69;;;-15.18;69.36
50292;BME280;36190;54.980;73.388;2022-12-07T00:08:17;102687.44;;;-15.09;69.54
50292;BME280;36190;54.980;73.388;2022-12-07T00:10:45;102685.69;;;-15.10;69.29
50292;BME280;36190;54.980;73.388;2022-12-07T00:13:12;102693.22;;;-15.15;69.16
50292;BME280;36190;54.980;73.388;2022-12-07T00:15:39;102682.00;;;-15.18;69.38
50292;BME280;36190;54.980;73.388;2022-12-07T00:18:07;102688.09;;;-15.15;69.34
50292;BME280;36190;54.980;73.388;2022-12-07T00:20:34;102694.97;;;-15.14;69.35
50292;BME280;36190;54.980;73.388;2022-12-07T00:23:01;102693.34;;;-15.12;69.22
50292;BME280;36190;54.980;73.388;2022-12-07T00:25:31;102695.25;;;-15.06;69.38
50292;BME280;36190;54.980;73.388;2022-12-07T00:27:58;102700.50;;;-15.01;69.27
50292;BME280;36190;54.980;73.388;2022-12-07T00:30:26;102697.78;;;-15.06;69.01
50292;BME280;36190;54.980;73.388;2022-12-07T00:32:53;102697.34;;;-15.18;68.89
50292;BME280;36190;54.980;73.388;2022-12-07T00:35:20;102700.44;;;-15.29;68.94
50292;BME280;36190;54.980;73.388;2022-12-07T00:37:48;102701.75;;;-15.40;68.98
50292;BME280;36190;54.980;73.388;2022-12-07T00:40:15;102706.50;;;-15.50;69.13
50292;BME280;36190;54.980;73.388;2022-12-07T00:42:44;102707.16;;;-15.55;69.20
50292;BME280;36190;54.980;73.388;2022-12-07T00:45:11;102713.09;;;-15.56;69.37
50292;BME280;36190;54.980;73.388;2022-12-07T00:47:39;102711.19;;;-15.62;69.21
50292;BME280;36190;54.980;73.388;2022-12-07T00:50:07;102705.75;;;-15.71;69.16
50292;BME280;36190;54.980;73.388;2022-12-07T00:52:34;102716.16;;;-15.67;69.22
50292;BME280;36190;54.980;73.388;2022-12-07T00:55:02;102707.72;;;-15.64;69.11
50292;BME280;36190;54.980;73.388;2022-12-07T00:57:31;102707.00;;;-15.60;69.15
50292;BME280;36190;54.980;73.388;2022-12-07T01:00:00;102699.31;;;-15.60;69.00
50292;BME280;36190;54.980;73.388;2022-12-07T01:02:27;102696.06;;;-15.56;68.98
50292;BME280;36190;54.980;73.388;2022-12-07T01:04:55;102695.28;;;-15.53;68.79
50292;BME280;36190;54.980;73.388;2022-12-07T01:07:22;102697.97;;;-15.50;68.56
50292;BME280;36190;54.980;73.388;2022-12-07T01:09:49;102697.97;;;-15.50;68.54
50292;BME280;36190;54.980;73.388;2022-12-07T01:12:17;102703.16;;;-15.49;68.37
50292;BME280;36190;54.980;73.388;2022-12-07T01:14:44;102699.72;;;-15.49;68.20
50292;BME280;36190;54.980;73.388;2022-12-07T01:17:13;102698.78;;;-15.51;68.21
50292;BME280;36190;54.980;73.388;2022-12-07T01:19:40;102703.91;;;-15.51;68.23
50292;BME280;36190;54.980;73.388;2022-12-07T01:22:07;102697.91;;;-15.52;68.12
50292;BME280;36190;54.980;73.388;2022-12-07T01:24:35;102693.88;;;-15.45;68.22
50292;BME280;36190;54.980;73.388;2022-12-07T01:27:02;102693.13;;;-15.42;68.07
50292;BME280;36190;54.980;73.388;2022-12-07T01:29:30;102684.59;;;-15.43;68.07
50292;BME280;36190;54.980;73.388;2022-12-07T01:31:57;102686.25;;;-15.43;67.85
50292;BME280;36190;54.980;73.388;2022-12-07T01:34:26;102681.03;;;-15.46;67.98
50292;BME280;36190;54.980;73.388;2022-12-07T01:36:53;102686.03;;;-15.50;67.77
50292;BME280;36190;54.980;73.388;2022-12-07T01:39:21;102678.41;;;-15.48;67.88
50292;BME280;36190;54.980;73.388;2022-12-07T01:41:48;102678.50;;;-15.45;68.03
50292;BME280;36190;54.980;73.388;2022-12-07T01:44:19;102656.72;;;-15.58;67.73
50292;BME280;36190;54.980;73.388;2022-12-07T01:46:48;102675.47;;;-15.59;67.71
50292;BME280;36190;54.980;73.388;2022-12-07T01:49:23;102668.59;;;-15.60;67.86
50292;BME280;36190;54.980;73.388;2022-12-07T01:51:58;102681.41;;;-15.60;67.81
50292;BME280;36190;54.980;73.388;2022-12-07T01:54:28;102683.09;;;-15.60;67.82
50292;BME280;36190;54.980;73.388;2022-12-07T01:56:56;102692.47;;;-15.61;67.93
50292;BME280;36190;54.980;73.388;2022-12-07T01:59:24;102668.59;;;-15.60;67.96
50292;BME280;36190;54.980;73.388;2022-12-07T02:01:53;102681.69;;;-15.52;67.97
50292;BME280;36190;54.980;73.388;2022-12-07T02:04:22;102676.63;;;-15.51;67.91
50292;BME280;36190;54.980;73.388;2022-12-07T02:06:50;102680.13;;;-15.49;67.90
50292;BME280;36190;54.980;73.388;2022-12-07T02:09:21;102682.78;;;-15.45;67.94
50292;BME280;36190;54.980;73.388;2022-12-07T02:11:48;102675.91;;;-15.46;67.69
50292;BME280;36190;54.980;73.388;2022-12-07T02:14:16;102668.25;;;-15.46;67.80
50292;BME280;36190;54.980;73.388;2022-12-07T02:16:50;102670.78;;;-15.46;67.81
50292;BME280;36190;54.980;73.388;2022-12-07T02:19:51;102674.38;;;-15.41;67.70
50292;BME280;36190;54.980;73.388;2022-12-07T02:22:48;102662.41;;;-15.42;67.69
50292;BME280;36190;54.980;73.388;2022-12-07T02:25:27;102670.97;;;-15.42;67.61
50292;BME280;36190;54.980;73.388;2022-12-07T02:28:03;102667.41;;;-15.45;67.67
50292;BME280;36190;54.980;73.388;2022-12-07T02:30:35;102669.97;;;-15.45;67.63
50292;BME280;36190;54.980;73.388;2022-12-07T02:33:13;102672.63;;;-15.42;67.63
50292;BME280;36190;54.980;73.388;2022-12-07T02:35:44;102671.94;;;-15.38;67.70
50292;BME280;36190;54.980;73.388;2022-12-07T02:38:17;102664.25;;;-15.38;67.80
50292;BME280;36190;54.980;73.388;2022-12-07T02:40:51;102678.28;;;-15.27;67.62
50292;BME280;36190;54.980;73.388;2022-12-07T02:43:24;102678.41;;;-15.24;67.64
50292;BME280;36190;54.980;73.388;2022-12-07T02:45:56;102656.50;;;-15.40;67.61
50292;BME280;36190;54.980;73.388;2022-12-07T02:48:26;102676.47;;;-15.31;67.39
50292;BME280;36190;54.980;73.388;2022-12-07T02:50:55;102681.44;;;-15.36;67.60
50292;BME280;36190;54.980;73.388;2022-12-07T02:53:29;102674.50;;;-15.38;67.52
50292;BME280;36190;54.980;73.388;2022-12-07T02:55:57;102681.13;;;-15.43;67.48
50292;BME280;36190;54.980;73.388;2022-12-07T02:58:32;102680.13;;;-15.49;67.45
50292;BME280;36190;54.980;73.388;2022-12-07T03:01:16;102673.13;;;-15.53;67.52
50292;BME280;36190;54.980;73.388;2022-12-07T03:03:58;102686.03;;;-15.50;67.61
50292;BME280;36190;54.980;73.388;2022-12-07T03:06:32;102684.19;;;-15.54;67.66
50292;BME280;36190;54.980;73.388;2022-12-07T03:09:12;102691.81;;;-15.55;67.71
50292;BME280;36190;54.980;73.388;2022-12-07T03:11:46;102694.34;;;-15.57;67.64
50292;BME280;36190;54.980;73.388;2022-12-07T03:14:18;102697.91;;;-15.52;67.72
50292;BME280;36190;54.980;73.388;2022-12-07T03:16:53;102697.38;;;-15.43;67.73
50292;BME280;36190;54.980;73.388;2022-12-07T03:19:24;102693.34;;;-15.36;67.80
50292;BME280;36190;54.980;73.388;2022-12-07T03:21:56;102702.91;;;-15.30;67.61
50292;BME280;36190;54.980;73.388;2022-12-07T03:24:27;102703.69;;;-15.33;67.44
50292;BME280;36190;54.980;73.388;2022-12-07T03:26:59;102700.78;;;-15.42;67.38
50292;BME280;36190;54.980;73.388;2022-12-07T03:29:33;102704.91;;;-15.48;67.49
50292;BME280;36190;54.980;73.388;2022-12-07T03:32:06;102695.41;;;-15.50;67.43
50292;BME280;36190;54.980;73.388;2022-12-07T03:34:38;102699.00;;;-15.45;67.56
50292;BME280;36190;54.980;73.388;2022-12-07T03:37:11;102692.13;;;-15.46;67.52
50292;BME280;36190;54.980;73.388;2022-12-07T03:39:44;102690.72;;;-15.62;67.56
50292;BME280;36190;54.980;73.388;2022-12-07T03:42:13;102698.88;;;-15.72;67.61
50292;BME280;36190;54.980;73.388;2022-12-07T03:44:41;102692.66;;;-15.79;67.90
50292;BME280;36190;54.980;73.388;2022-12-07T03:47:13;102694.56;;;-15.73;68.01
50292;BME280;36190;54.980;73.388;2022-12-07T03:49:45;102676.31;;;-15.83;68.08
50292;BME280;36190;54.980;73.388;2022-12-07T03:52:21;102695.38;;;-15.75;67.80
50292;BME280;36190;54.980;73.388;2022-12-07T03:54:55;102684.50;;;-15.93;67.74
50292;BME280;36190;54.980;73.388;2022-12-07T03:57:25;102682.09;;;-16.11;67.70
50292;BME280;36190;54.980;73.388;2022-12-07T03:59:55;102676.78;;;-16.18;67.83
50292;BME280;36190;54.980;73.388;2022-12-07T04:02:27;102689.16;;;-16.06;67.86
50292;BME280;36190;54.980;73.388;2022-12-07T04:04:55;102694.50;;;-15.99;67.90
50292;BME280;36190;54.980;73.388;2022-12-07T04:07:23;102699.75;;;-15.96;67.86
50292;BME280;36190;54.980;73.388;2022-12-07T04:09:51;102700.72;;;-15.93;67.91
50292;BME280;36190;54.980;73.388;2022-12-07T04:12:20;102704.16;;;-15.92;67.72
50292;BME280;36190;54.980;73.388;2022-12-07T04:14:47;102701.47;;;-15.95;67.59
50292;BME280;36190;54.980;73.388;2022-12-07T04:17:15;102701.16;;;-16.05;67.31
50292;BME280;36190;54.980;73.388;2022-12-07T04:19:44;102703.28;;;-16.15;67.49
50292;BME280;36190;54.980;73.388;2022-12-07T04:22:12;102692.56;;;-16.28;67.51
50292;BME280;36190;54.980;73.388;2022-12-07T04:24:39;102701.69;;;-16.35;67.71
50292;BME280;36190;54.980;73.388;2022-12-07T04:27:06;102695.47;;;-16.41;67.62
50292;BME280;36190;54.980;73.388;2022-12-07T04:29:34;102713.41;;;-16.40;67.81
50292;BME280;36190;54.980;73.388;2022-12-07T04:32:01;102703.44;;;-16.34;68.00
50292;BME280;36190;54.980;73.388;2022-12-07T04:34:28;102700.19;;;-16.29;67.97
50292;BME280;36190;54.980;73.388;2022-12-07T04:36:57;102698.66;;;-16.24;67.96
50292;BME280;36190;54.980;73.388;2022-12-07T04:39:27;102676.47;;;-16.25;67.78
50292;BME280;36190;54.980;73.388;2022-12-07T04:41:54;102685.78;;;-16.05;67.77
50292;BME280;36190;54.980;73.388;2022-12-07T04:44:23;102688.69;;;-15.95;67.61
50292;BME280;36190;54.980;73.388;2022-12-07T04:46:51;102691.47;;;-15.89;67.38
50292;BME280;36190;54.980;73.388;2022-12-07T04:49:20;102693.91;;;-15.92;67.34
50292;BME280;36190;54.980;73.388;2022-12-07T04:51:47;102696.56;;;-15.89;67.20
50292;BME280;36190;54.980;73.388;2022-12-07T04:54:16;102691.41;;;-15.91;67.21
50292;BME280;36190;54.980;73.388;2022-12-07T04:56:44;102694.22;;;-15.83;67.26
50292;BME280;36190;54.980;73.388;2022-12-07T04:59:12;102698.28;;;-15.65;67.43
50292;BME280;36190;54.980;73.388;2022-12-07T05:01:40;102698.03;;;-15.49;67.26
50292;BME280;36190;54.980;73.388;2022-12-07T05:04:07;102696.66;;;-15.39;66.88
50292;BME280;36190;54.980;73.388;2022-12-07T05:06:35;102697.38;;;-15.43;66.71
50292;BME280;36190;54.980;73.388;2022-12-07T05:09:03;102699.28;;;-15.37;66.72
50292;BME280;36190;54.980;73.388;2022-12-07T05:11:32;102694.56;;;-15.25;66.73
50292;BME280;36190;54.980;73.388;2022-12-07T05:14:07;102678.28;;;-15.27;66.47
50292;BME280;36190;54.980;73.388;2022-12-07T05:16:36;102699.69;;;-15.00;66.59
50292;BME280;36190;54.980;73.388;2022-12-07T05:19:04;102702.84;;;-14.83;66.54
50292;BME280;36190;54.980;73.388;2022-12-07T05:21:31;102705.50;;;-14.80;66.15
50292;BME280;36190;54.980;73.388;2022-12-07T05:23:59;102700.06;;;-14.89;65.78
50292;BME280;36190;54.980;73.388;2022-12-07T05:26:28;102701.50;;;-14.98;65.89
50292;BME280;36190;54.980;73.388;2022-12-07T05:28:57;102701.78;;;-14.88;66.20
50292;BME280;36190;54.980;73.388;2022-12-07T05:31:25;102696.00;;;-14.83;66.12
50292;BME280;36190;54.980;73.388;2022-12-07T05:33:53;102710.63;;;-14.80;66.25
50292;BME280;36190;54.980;73.388;2022-12-07T05:36:21;102702.41;;;-14.96;65.91
50292;BME280;36190;54.980;73.388;2022-12-07T05:38:49;102692.53;;;-15.09;65.98
50292;BME280;36190;54.980;73.388;2022-12-07T05:41:18;102681.59;;;-15.31;66.26
50292;BME280;36190;54.980;73.388;2022-12-07T05:44:04;102685.06;;;-15.29;66.40
50292;BME280;36190;54.980;73.388;2022-12-07T05:46:31;102683.31;;;-15.30;66.79
50292;BME280;36190;54.980;73.388;2022-12-07T05:48:59;102683.53;;;-15.24;66.73
50292;BME280;36190;54.980;73.388;2022-12-07T05:51:26;102672.88;;;-15.10;66.89
50292;BME280;36190;54.980;73.388;2022-12-07T05:53:54;102677.91;;;-14.87;66.98
50292;BME280;36190;54.980;73.388;2022-12-07T05:56:21;102668.13;;;-14.72;66.62
50292;BME280;36190;54.980;73.388;2022-12-07T05:58:50;102677.91;;;-14.60;66.55
50292;BME280;36190;54.980;73.388;2022-12-07T06:01:36;102675.69;;;-14.49;66.18
50292;BME280;36190;54.980;73.388;2022-12-07T06:04:03;102668.63;;;-14.56;65.64
50292;BME280;36190;54.980;73.388;2022-12-07T06:06:31;102670.06;;;-14.65;65.67
50292;BME280;36190;54.980;73.388;2022-12-07T06:08:58;102664.75;;;-14.71;65.92
50292;BME280;36190;54.980;73.388;2022-12-07T06:11:26;102664.41;;;-14.82;65.89
50292;BME280;36190;54.980;73.388;2022-12-07T06:14:10;102651.72;;;-15.04;65.92
50292;BME280;36190;54.980;73.388;2022-12-07T06:16:39;102651.38;;;-15.15;66.23
50292;BME280;36190;54.980;73.388;2022-12-07T06:19:07;102646.56;;;-15.06;66.61
50292;BME280;36190;54.980;73.388;2022-12-07T06:21:34;102644.31;;;-14.97;66.52
50292;BME280;36190;54.980;73.388;2022-12-07T06:24:04;102643.28;;;-15.02;66.42
50292;BME280;36190;54.980;73.388;2022-12-07T06:26:32;102648.50;;;-14.99;66.39
50292;BME280;36190;54.980;73.388;2022-12-07T06:28:59;102646.59;;;-15.04;66.35
50292;BME280;36190;54.980;73.388;2022-12-07T06:31:26;102646.56;;;-15.06;66.48
50292;BME280;36190;54.980;73.388;2022-12-07T06:33:59;102643.28;;;-15.02;66.50
50292;BME280;36190;54.980;73.388;2022-12-07T06:36:27;102645.22;;;-14.95;66.42
50292;BME280;36190;54.980;73.388;2022-12-07T06:38:54;102651.41;;;-14.88;66.30
50292;BME280;36190;54.980;73.388;2022-12-07T06:41:22;102634.44;;;-14.84;66.08
50292;BME280;36190;54.980;73.388;2022-12-07T06:43:49;102642.31;;;-14.78;66.25
50292;BME280;36190;54.980;73.388;2022-12-07T06:46:17;102644.19;;;-14.74;66.18
50292;BME280;36190;54.980;73.388;2022-12-07T06:48:44;102644.19;;;-14.74;65.90
50292;BME280;36190;54.980;73.388;2022-12-07T06:51:13;102638.16;;;-14.74;66.05
50292;BME280;36190;54.980;73.388;2022-12-07T06:53:41;102639.31;;;-14.65;66.13
50292;BME280;36190;54.980;73.388;2022-12-07T06:56:08;102642.78;;;-14.62;65.95
50292;BME280;36190;54.980;73.388;2022-12-07T06:58:35;102644.53;;;-14.61;66.02
50292;BME280;36190;54.980;73.388;2022-12-07T07:01:07;102642.78;;;-14.62;65.74
50292;BME280;36190;54.980;73.388;2022-12-07T07:03:35;102642.78;;;-14.62;65.69
50292;BME280;36190;54.980;73.388;2022-12-07T07:06:02;102643.00;;;-14.56;65.54
50292;BME280;36190;54.980;73.388;2022-12-07T07:08:31;102642.38;;;-14.47;65.62
50292;BME280;36190;54.980;73.388;2022-12-07T07:10:59;102641.13;;;-14.33;65.46
50292;BME280;36190;54.980;73.388;2022-12-07T07:13:26;102645.38;;;-14.04;65.41
50292;BME280;36190;54.980;73.388;2022-12-07T07:15:54;102637.88;;;-13.98;65.11
50292;BME280;36190;54.980;73.388;2022-12-07T07:18:22;102636.22;;;-13.96;64.66
50292;BME280;36190;54.980;73.388;2022-12-07T07:20:50;102636.31;;;-13.93;64.71
50292;BME280;36190;54.980;73.388;2022-12-07T07:23:17;102632.66;;;-14.01;64.71
50292;BME280;36190;54.980;73.388;2022-12-07T07:25:46;102638.38;;;-14.10;64.69
50292;BME280;36190;54.980;73.388;2022-12-07T07:28:14;102637.34;;;-14.17;64.84
50292;BME280;36190;54.980;73.388;2022-12-07T07:30:42;102629.00;;;-14.10;64.98
50292;BME280;36190;54.980;73.388;2022-12-07T07:33:09;102631.91;;;-13.97;64.89
50292;BME280;36190;54.980;73.388;2022-12-07T07:35:37;102630.28;;;-13.93;64.84
50292;BME280;36190;54.980;73.388;2022-12-07T07:38:05;102629.72;;;-13.85;64.87
50292;BME280;36190;54.980;73.388;2022-12-07T07:40:33;102626.31;;;-13.84;64.57
50292;BME280;36190;54.980;73.388;2022-12-07T07:43:02;102621.31;;;-13.77;64.72
50292;BME280;36190;54.980;73.388;2022-12-07T07:45:29;102631.13;;;-13.64;64.67
50292;BME280;36190;54.980;73.388;2022-12-07T07:47:56;102618.31;;;-13.62;64.46
50292;BME280;36190;54.980;73.388;2022-12-07T07:50:24;102618.44;;;-13.58;64.55
50292;BME280;36190;54.980;73.388;2022-12-07T07:52:51;102623.91;;;-13.45;64.36
50292;BME280;36190;54.980;73.388;2022-12-07T07:55:19;102610.47;;;-13.35;64.40
50292;BME280;36190;54.980;73.388;2022-12-07T07:57:46;102608.19;;;-13.22;64.30
50292;BME280;36190;54.980;73.388;2022-12-07T08:00:16;102606.69;;;-13.14;64.17
50292;BME280;36190;54.980;73.388;2022-12-07T08:02:44;102619.97;;;-12.97;64.07
50292;BME280;36190;54.980;73.388;2022-12-07T08:05:12;102613.03;;;-13.00;63.72
50292;BME280;36190;54.980;73.388;2022-12-07T08:07:39;102609.47;;;-13.05;63.68
50292;BME280;36190;54.980;73.388;2022-12-07T08:10:10;102617.34;;;-12.99;63.78
50292;BME280;36190;54.980;73.388;2022-12-07T08:12:38;102613.94;;;-12.98;63.92
50292;BME280;36190;54.980;73.388;2022-12-07T08:15:29;102618.41;;;-12.90;63.68
50292;BME280;36190;54.980;73.388;2022-12-07T08:17:57;102621.13;;;-12.84;63.70
50292;BME280;36190;54.980;73.388;2022-12-07T08:20:25;102615.19;;;-12.81;63.59
50292;BME280;36190;54.980;73.388;2022-12-07T08:22:52;102609.06;;;-12.87;63.41
50292;BME280;36190;54.980;73.388;2022-12-07T08:25:20;102617.28;;;-13.00;63.36
50292;BME280;36190;54.980;73.388;2022-12-07T08:27:47;102605.44;;;-13.29;63.53
50292;BME280;36190;54.980;73.388;2022-12-07T08:30:15;102605.94;;;-13.44;63.91
50292;BME280;36190;54.980;73.388;2022-12-07T08:32:46;102603.09;;;-13.56;64.11
50292;BME280;36190;54.980;73.388;2022-12-07T08:35:14;102607.28;;;-13.60;64.33
50292;BME280;36190;54.980;73.388;2022-12-07T08:37:42;102600.66;;;-13.50;64.63
50292;BME280;36190;54.980;73.388;2022-12-07T08:40:11;102600.13;;;-13.36;64.65
50292;BME280;36190;54.980;73.388;2022-12-07T08:42:41;102602.03;;;-13.29;64.38
50292;BME280;36190;54.980;73.388;2022-12-07T08:45:12;102593.97;;;-13.43;64.22
50292;BME280;36190;54.980;73.388;2022-12-07T08:47:42;102595.56;;;-13.48;64.23
50292;BME280;36190;54.980;73.388;2022-12-07T08:50:14;102596.06;;;-13.62;64.25
50292;BME280;36190;54.980;73.388;2022-12-07T08:52:41;102592.84;;;-13.87;64.32
50292;BME280;36190;54.980;73.388;2022-12-07T08:55:10;102587.50;;;-13.94;64.80
50292;BME280;36190;54.980;73.388;2022-12-07T08:57:39;102593.50;;;-13.94;64.88
50292;BME280;36190;54.980;73.388;2022-12-07T09:00:08;102592.56;;;-13.96;64.98
50292;BME280;36190;54.980;73.388;2022-12-07T09:02:36;102579.56;;;-14.02;64.94
50292;BME280;36190;54.980;73.388;2022-12-07T09:05:04;102583.91;;;-14.01;65.05
50292;BME280;36190;54.980;73.388;2022-12-07T09:07:34;102582.63;;;-13.85;65.25
50292;BME280;36190;54.980;73.388;2022-12-07T09:10:02;102585.38;;;-13.77;65.03
50292;BME280;36190;54.980;73.388;2022-12-07T09:12:29;102594.72;;;-13.81;64.90
50292;BME280;36190;54.980;73.388;2022-12-07T09:14:56;102587.88;;;-13.80;64.84
50292;BME280;36190;54.980;73.388;2022-12-07T09:17:26;102595.88;;;-13.70;64.86
50292;BME280;36190;54.980;73.388;2022-12-07T09:19:54;102593.56;;;-13.60;64.84
50292;BME280;36190;54.980;73.388;2022-12-07T09:22:21;102593.78;;;-13.52;64.66
50292;BME280;36190;54.980;73.388;2022-12-07T09:24:50;102587.69;;;-13.55;64.37
50292;BME280;36190;54.980;73.388;2022-12-07T09:27:17;102584.22;;;-13.57;64.10
50292;BME280;36190;54.980;73.388;2022-12-07T09:29:45;102582.44;;;-13.61;64.05
50292;BME280;36190;54.980;73.388;2022-12-07T09:32:12;102590.69;;;-13.71;63.88
50292;BME280;36190;54.980;73.388;2022-12-07T09:34:39;102597.38;;;-13.78;63.85
50292;BME280;36190;54.980;73.388;2022-12-07T09:37:07;102592.09;;;-13.83;63.97
50292;BME280;36190;54.980;73.388;2022-12-07T09:39:37;102591.31;;;-13.80;63.94
50292;BME280;36190;54.980;73.388;2022-12-07T09:42:07;102587.16;;;-13.76;64.00
50292;BME280;36190;54.980;73.388;2022-12-07T09:44:39;102589.19;;;-13.63;64.13
50292;BME280;36190;54.980;73.388;2022-12-07T09:47:09;102582.69;;;-13.50;64.08
50292;BME280;36190;54.980;73.388;2022-12-07T09:49:37;102581.19;;;-13.40;63.76
50292;BME280;36190;54.980;73.388;2022-12-07T09:52:18;102576.19;;;-13.35;63.49
50292;BME280;36190;54.980;73.388;2022-12-07T09:54:49;102579.41;;;-13.44;63.39
50292;BME280;36190;54.980;73.388;2022-12-07T09:57:21;102585.50;;;-13.39;63.18
50292;BME280;36190;54.980;73.388;2022-12-07T09:59:52;102588.84;;;-13.42;63.18
50292;BME280;36190;54.980;73.388;2022-12-07T10:02:34;102587.63;;;-13.58;62.71
50292;BME280;36190;54.980;73.388;2022-12-07T10:05:04;102578.50;;;-13.78;62.88
50292;BME280;36190;54.980;73.388;2022-12-07T10:07:32;102574.97;;;-13.84;63.03
50292;BME280;36190;54.980;73.388;2022-12-07T10:10:02;102575.81;;;-13.83;63.06
50292;BME280;36190;54.980;73.388;2022-12-07T10:12:52;102589.50;;;-13.84;62.72
50292;BME280;36190;54.980;73.388;2022-12-07T10:15:21;102586.78;;;-13.89;62.82
50292;BME280;36190;54.980;73.388;2022-12-07T10:17:50;102590.13;;;-13.93;62.63
50292;BME280;36190;54.980;73.388;2022-12-07T10:20:22;102579.75;;;-13.96;62.52
50292;BME280;36190;54.980;73.388;2022-12-07T10:23:02;102566.72;;;-14.04;62.37
50292;BME280;36190;54.980;73.388;2022-12-07T10:25:32;102572.81;;;-14.00;62.37
50292;BME280;36190;54.980;73.388;2022-12-07T10:28:12;102555.75;;;-13.98;62.06
50292;BME280;36190;54.980;73.388;2022-12-07T10:30:57;102575.69;;;-13.88;62.17
50292;BME280;36190;54.980;73.388;2022-12-07T10:33:30;102581.72;;;-13.87;62.07
50292;BME280;36190;54.980;73.388;2022-12-07T10:35:58;102578.25;;;-13.89;62.03
50292;BME280;36190;54.980;73.388;2022-12-07T10:38:27;102579.94;;;-13.90;62.00
50292;BME280;36190;54.980;73.388;2022-12-07T10:41:04;102574.78;;;-13.90;61.69
50292;BME280;36190;54.980;73.388;2022-12-07T10:43:33;102572.16;;;-13.93;61.80
50292;BME280;36190;54.980;73.388;2022-12-07T10:52:00;102567.75;;;-13.97;61.74
50292;BME280;36190;54.980;73.388;2022-12-07T10:54:41;102571.88;;;-14.02;61.60
50292;BME280;36190;54.980;73.388;2022-12-07T10:57:26;102565.66;;;-14.11;61.59
50292;BME280;36190;54.980;73.388;2022-12-07T11:00:08;102573.16;;;-14.18;61.66
50292;BME280;36190;54.980;73.388;2022-12-07T11:02:51;102566.97;;;-14.25;61.54
50292;BME280;36190;54.980;73.388;2022-12-07T11:05:28;102572.97;;;-14.25;61.63
50292;BME280;36190;54.980;73.388;2022-12-07T11:08:03;102547.88;;;-14.35;61.64
50292;BME280;36190;54.980;73.388;2022-12-07T11:10:41;102565.13;;;-14.29;61.66
50292;BME280;36190;54.980;73.388;2022-12-07T11:13:24;102559.56;;;-14.45;61.56
50292;BME280;36190;54.980;73.388;2022-12-07T11:16:21;102566.06;;;-14.56;61.54
50292;BME280;36190;54.980;73.388;2022-12-07T11:19:03;102556.22;;;-14.73;61.61
50292;BME280;36190;54.980;73.388;2022-12-07T11:21:40;102557.91;;;-14.73;61.59
50292;BME280;36190;54.980;73.388;2022-12-07T11:24:14;102561.34;;;-14.71;61.66
50292;BME280;36190;54.980;73.388;2022-12-07T11:26:52;102556.19;;;-14.71;61.49
50292;BME280;36190;54.980;73.388;2022-12-07T11:29:40;102562.41;;;-14.65;61.44
50292;BME280;36190;54.980;73.388;2022-12-07T11:32:19;102557.56;;;-14.55;61.56
50292;BME280;36190;54.980;73.388;2022-12-07T11:34:58;102554.09;;;-14.57;61.23
50292;BME280;36190;54.980;73.388;2022-12-07T11:37:33;102555.53;;;-14.66;61.00
50292;BME280;36190;54.980;73.388;2022-12-07T11:40:03;102562.59;;;-14.87;60.92
50292;BME280;36190;54.980;73.388;2022-12-07T11:42:37;102561.19;;;-15.05;61.03
50292;BME280;36190;54.980;73.388;2022-12-07T11:45:13;102553.94;;;-15.18;61.28
50292;BME280;36190;54.980;73.388;2022-12-07T11:47:47;102558.84;;;-15.25;61.43
50292;BME280;36190;54.980;73.388;2022-12-07T11:50:26;102556.28;;;-15.25;61.74
50292;BME280;36190;54.980;73.388;2022-12-07T11:52:58;102545.25;;;-15.24;61.73
50292;BME280;36190;54.980;73.388;2022-12-07T11:55:29;102540.91;;;-15.25;61.69
50292;BME280;36190;54.980;73.388;2022-12-07T11:58:04;102546.88;;;-15.26;61.89
50292;BME280;36190;54.980;73.388;2022-12-07T12:00:32;102538.72;;;-15.14;61.86
50292;BME280;36190;54.980;73.388;2022-12-07T12:03:09;102543.41;;;-15.00;62.04
50292;BME280;36190;54.980;73.388;2022-12-07T12:05:39;102525.41;;;-15.02;61.94
50292;BME280;36190;54.980;73.388;2022-12-07T12:08:13;102537.59;;;-14.95;61.62
50292;BME280;36190;54.980;73.388;2022-12-07T12:10:54;102551.03;;;-15.02;61.61
50292;BME280;36190;54.980;73.388;2022-12-07T12:13:44;102545.81;;;-15.05;61.78
50292;BME280;36190;54.980;73.388;2022-12-07T12:19:17;102541.31;;;-15.12;61.92
50292;BME280;36190;54.980;73.388;2022-12-07T12:21:49;102542.00;;;-15.18;61.95
50292;BME280;36190;54.980;73.388;2022-12-07T12:24:23;102538.56;;;-15.18;62.17
50292;BME280;36190;54.980;73.388;2022-12-07T12:26:54;102547.06;;;-15.20;62.20
50292;BME280;36190;54.980;73.388;2022-12-07T12:29:28;102540.91;;;-15.25;62.25
50292;BME280;36190;54.980;73.388;2022-12-07T12:32:08;102538.13;;;-15.32;62.37
50292;BME280;36190;54.980;73.388;2022-12-07T12:34:57;102538.81;;;-15.38;62.51
50292;BME280;36190;54.980;73.388;2022-12-07T12:37:44;102535.81;;;-15.51;62.51
50292;BME280;36190;54.980;73.388;2022-12-07T12:40:43;102537.88;;;-15.40;62.81
50292;BME280;36190;54.980;73.388;2022-12-07T12:43:49;102531.19;;;-15.35;62.99
50292;BME280;36190;54.980;73.388;2022-12-07T12:46:46;102537.22;;;-15.35;62.81
50292;BME280;36190;54.980;73.388;2022-12-07T12:52:52;102530.00;;;-15.46;62.90
50292;BME280;36190;54.980;73.388;2022-12-07T12:55:29;102540.38;;;-15.42;63.05
50292;BME280;36190;54.980;73.388;2022-12-07T12:58:32;102532.75;;;-15.40;63.11
50292;BME280;36190;54.980;73.388;2022-12-07T13:01:38;102544.91;;;-15.33;63.05
50292;BME280;36190;54.980;73.388;2022-12-07T13:06:59;102539.66;;;-15.38;63.16